createdAt,value
2016-05-19T00:00:01.945Z,0
2016-05-19T00:01:02.135Z,0
2016-05-19T00:02:02.168Z,0
2016-05-19T00:03:02.046Z,0
2016-05-19T00:04:02.237Z,0
2016-05-19T00:05:02.286Z,0
2016-05-19T00:06:02.320Z,0
2016-05-19T00:07:02.353Z,0
2016-05-19T00:08:02.231Z,0
2016-05-19T00:09:02.281Z,0
2016-05-19T00:10:02.472Z,0
2016-05-19T00:11:02.506Z,0
2016-05-19T00:12:02.383Z,0
2016-05-19T00:13:02.573Z,0
2016-05-19T00:14:02.623Z,0
2016-05-19T00:15:02.658Z,0
2016-05-19T00:16:02.691Z,0
2016-05-19T00:17:02.725Z,0
2016-05-19T00:18:02.759Z,0
2016-05-19T00:19:02.808Z,0
2016-05-19T00:20:03.077Z,0
2016-05-19T00:21:02.719Z,0
2016-05-19T00:22:02.926Z,0
2016-05-19T00:23:03.444Z,0
2016-05-19T00:24:02.837Z,0
2016-05-19T00:25:03.028Z,0
2016-05-19T00:26:02.921Z,0
2016-05-19T00:27:03.095Z,0
2016-05-19T00:28:03.129Z,0
2016-05-19T00:29:03.179Z,0
2016-05-19T00:30:03.057Z,0
2016-05-19T00:31:03.246Z,0
2016-05-19T00:32:03.140Z,0
2016-05-19T00:33:03.330Z,0
2016-05-19T00:34:03.395Z,0
2016-05-19T00:35:03.257Z,0
2016-05-19T00:36:03.432Z,0
2016-05-19T00:37:03.467Z,0
2016-05-19T00:38:03.859Z,0
2016-05-19T00:39:03.550Z,0
2016-05-19T00:40:03.584Z,0
2016-05-19T00:41:03.633Z,0
2016-05-19T00:42:03.667Z,0
2016-05-19T00:43:03.701Z,0
2016-05-19T00:44:03.735Z,0
2016-05-19T00:45:03.769Z,0
2016-05-19T00:46:03.803Z,0
2016-05-19T00:47:03.852Z,0
2016-05-19T00:48:03.886Z,0
2016-05-19T00:49:03.920Z,0
2016-05-19T00:50:03.954Z,0
2016-05-19T00:51:04.004Z,0
2016-05-19T00:52:04.053Z,0
2016-05-19T00:53:04.352Z,0
2016-05-19T00:54:04.105Z,0
2016-05-19T00:55:04.155Z,0
2016-05-19T00:56:04.189Z,0
2016-05-19T00:57:04.224Z,0
2016-05-19T00:58:04.257Z,0
2016-05-19T00:59:04.290Z,0
2016-05-19T01:00:04.341Z,0
2016-05-19T01:01:04.374Z,0
2016-05-19T01:02:04.408Z,0
2016-05-19T01:03:04.442Z,0
2016-05-19T01:04:04.492Z,0
2016-05-19T01:05:04.526Z,0
2016-05-19T01:06:04.560Z,0
2016-05-19T01:07:04.437Z,0
2016-05-19T01:08:04.643Z,0
2016-05-19T01:09:04.662Z,0
2016-05-19T01:10:04.695Z,0
2016-05-19T01:11:04.745Z,0
2016-05-19T01:12:04.778Z,0
2016-05-19T01:13:04.813Z,0
2016-05-19T01:14:04.862Z,0
2016-05-19T01:15:04.897Z,0
2016-05-19T01:16:04.930Z,0
2016-05-19T01:17:04.964Z,0
2016-05-19T01:18:04.998Z,0
2016-05-19T01:19:05.048Z,0
2016-05-19T01:20:04.925Z,0
2016-05-19T01:21:05.115Z,0
2016-05-19T01:22:05.166Z,0
2016-05-19T01:23:05.044Z,0
2016-05-19T01:24:05.233Z,0
2016-05-19T01:25:05.266Z,0
2016-05-19T01:26:05.301Z,0
2016-05-19T01:27:05.335Z,0
2016-05-19T01:28:05.385Z,0
2016-05-19T01:29:05.418Z,0
2016-05-19T01:30:05.452Z,0
2016-05-19T01:31:05.502Z,0
2016-05-19T01:32:05.535Z,0
2016-05-19T01:33:05.570Z,0
2016-05-19T01:34:05.604Z,0
2016-05-19T01:35:05.637Z,0
2016-05-19T01:36:05.671Z,0
2016-05-19T01:37:05.706Z,0
2016-05-19T01:38:05.755Z,0
2016-05-19T01:39:05.634Z,0
2016-05-19T01:40:05.666Z,0
2016-05-19T01:41:05.872Z,0
2016-05-19T01:42:05.891Z,0
2016-05-19T01:43:05.925Z,0
2016-05-19T01:44:05.975Z,0
2016-05-19T01:45:05.853Z,0
2016-05-19T01:46:06.042Z,0
2016-05-19T01:47:06.092Z,0
2016-05-19T01:48:05.969Z,0
2016-05-19T01:49:06.175Z,0
2016-05-19T01:50:06.194Z,0
2016-05-19T01:51:06.087Z,0
2016-05-19T01:52:06.105Z,0
2016-05-19T01:53:06.639Z,0
2016-05-19T01:54:06.189Z,0
2016-05-19T01:55:06.379Z,0
2016-05-19T01:56:06.429Z,0
2016-05-19T01:57:06.463Z,0
2016-05-19T01:58:06.512Z,0
2016-05-19T01:59:06.374Z,0
2016-05-19T02:00:06.580Z,0
2016-05-19T02:01:06.598Z,0
2016-05-19T02:02:06.648Z,0
2016-05-19T02:03:06.681Z,0
2016-05-19T02:04:06.715Z,0
2016-05-19T02:05:06.610Z,0
2016-05-19T02:06:06.784Z,0
2016-05-19T02:07:06.676Z,0
2016-05-19T02:08:06.711Z,0
2016-05-19T02:09:06.901Z,0
2016-05-19T02:10:06.779Z,0
2016-05-19T02:11:06.970Z,0
2016-05-19T02:12:07.018Z,0
2016-05-19T02:13:07.068Z,0
2016-05-19T02:14:07.087Z,0
2016-05-19T02:15:06.980Z,0
2016-05-19T02:16:07.170Z,0
2016-05-19T02:17:07.203Z,0
2016-05-19T02:18:07.081Z,0
2016-05-19T02:19:07.272Z,0
2016-05-19T02:20:07.305Z,0
2016-05-19T02:21:07.339Z,0
2016-05-19T02:22:07.374Z,0
2016-05-19T02:23:07.141Z,0
2016-05-19T02:24:07.472Z,0
2016-05-19T02:25:07.499Z,0
2016-05-19T02:26:07.549Z,0
2016-05-19T02:27:07.566Z,0
2016-05-19T02:28:07.616Z,0
2016-05-19T02:29:07.635Z,0
2016-05-19T02:30:07.685Z,0
2016-05-19T02:31:07.718Z,0
2016-05-19T02:32:07.752Z,0
2016-05-19T02:33:07.785Z,0
2016-05-19T02:34:07.835Z,0
2016-05-19T02:35:07.869Z,0
2016-05-19T02:36:07.904Z,0
2016-05-19T02:37:07.937Z,0
2016-05-19T02:38:07.971Z,0
2016-05-19T02:39:07.865Z,0
2016-05-19T02:40:08.070Z,0
2016-05-19T02:41:07.960Z,0
2016-05-19T02:42:08.209Z,0
2016-05-19T02:43:08.130Z,0
2016-05-19T02:44:08.209Z,0
2016-05-19T02:45:08.442Z,0
2016-05-19T02:46:08.516Z,0
2016-05-19T02:47:08.566Z,0
2016-05-19T02:48:08.615Z,4
2016-05-19T02:49:08.665Z,4
2016-05-19T02:50:08.714Z,4
2016-05-19T02:51:08.772Z,0
2016-05-19T02:52:08.797Z,0
2016-05-19T02:53:09.024Z,4
2016-05-19T02:54:09.281Z,0
2016-05-19T02:55:08.931Z,4
2016-05-19T02:56:08.968Z,0
2016-05-19T02:57:09.020Z,4
2016-05-19T02:58:09.055Z,4
2016-05-19T02:59:09.076Z,4
2016-05-19T03:00:09.128Z,4
2016-05-19T03:01:09.179Z,4
2016-05-19T03:02:09.213Z,4
2016-05-19T03:03:09.232Z,8
2016-05-19T03:04:09.298Z,8
2016-05-19T03:05:09.317Z,8
2016-05-19T03:06:09.352Z,8
2016-05-19T03:07:09.386Z,8
2016-05-19T03:08:09.701Z,12
2016-05-19T03:09:09.470Z,8
2016-05-19T03:10:09.519Z,12
2016-05-19T03:11:09.538Z,12
2016-05-19T03:12:09.588Z,12
2016-05-19T03:13:09.622Z,16
2016-05-19T03:14:09.344Z,16
2016-05-19T03:15:09.378Z,16
2016-05-19T03:16:09.739Z,16
2016-05-19T03:17:09.774Z,20
2016-05-19T03:18:09.652Z,24
2016-05-19T03:19:09.841Z,20
2016-05-19T03:20:09.891Z,20
2016-05-19T03:21:09.925Z,20
2016-05-19T03:22:09.802Z,24
2016-05-19T03:23:09.836Z,20
2016-05-19T03:24:10.026Z,24
2016-05-19T03:25:10.060Z,24
2016-05-19T03:26:10.094Z,24
2016-05-19T03:27:10.143Z,24
2016-05-19T03:28:10.021Z,28
2016-05-19T03:29:10.212Z,28
2016-05-19T03:30:10.262Z,28
2016-05-19T03:31:10.295Z,32
2016-05-19T03:32:10.329Z,32
2016-05-19T03:33:10.379Z,36
2016-05-19T03:34:10.398Z,36
2016-05-19T03:35:10.448Z,40
2016-05-19T03:36:10.465Z,40
2016-05-19T03:37:10.515Z,40
2016-05-19T03:38:11.423Z,48
2016-05-19T03:39:10.582Z,48
2016-05-19T03:40:10.617Z,56
2016-05-19T03:41:10.681Z,56
2016-05-19T03:42:10.716Z,60
2016-05-19T03:43:10.577Z,60
2016-05-19T03:44:10.611Z,64
2016-05-19T03:45:10.802Z,68
2016-05-19T03:46:10.835Z,72
2016-05-19T03:47:10.713Z,72
2016-05-19T03:48:10.763Z,76
2016-05-19T03:49:10.953Z,84
2016-05-19T03:50:10.831Z,88
2016-05-19T03:51:11.021Z,92
2016-05-19T03:52:11.086Z,92
2016-05-19T03:53:11.433Z,88
2016-05-19T03:54:11.139Z,84
2016-05-19T03:55:11.016Z,88
2016-05-19T03:56:11.207Z,92
2016-05-19T03:57:11.240Z,96
2016-05-19T03:58:11.290Z,104
2016-05-19T03:59:11.324Z,108
2016-05-19T04:00:11.357Z,112
2016-05-19T04:01:11.407Z,116
2016-05-19T04:02:11.456Z,116
2016-05-19T04:03:11.475Z,120
2016-05-19T04:04:11.509Z,120
2016-05-19T04:05:11.543Z,120
2016-05-19T04:06:11.592Z,120
2016-05-19T04:07:11.611Z,124
2016-05-19T04:08:11.661Z,128
2016-05-19T04:09:11.539Z,128
2016-05-19T04:10:11.729Z,132
2016-05-19T04:11:11.762Z,132
2016-05-19T04:12:11.812Z,136
2016-05-19T04:13:11.690Z,144
2016-05-19T04:14:11.880Z,156
2016-05-19T04:15:11.913Z,172
2016-05-19T04:16:11.947Z,188
2016-05-19T04:17:11.981Z,200
2016-05-19T04:18:12.031Z,216
2016-05-19T04:19:12.065Z,224
2016-05-19T04:20:12.099Z,236
2016-05-19T04:21:11.991Z,252
2016-05-19T04:22:12.166Z,264
2016-05-19T04:23:12.482Z,268
2016-05-19T04:24:12.250Z,272
2016-05-19T04:25:12.285Z,280
2016-05-19T04:26:12.334Z,292
2016-05-19T04:27:12.368Z,308
2016-05-19T04:28:12.402Z,328
2016-05-19T04:29:12.436Z,344
2016-05-19T04:30:12.470Z,364
2016-05-19T04:31:12.519Z,380
2016-05-19T04:32:12.554Z,404
2016-05-19T04:33:12.431Z,420
2016-05-19T04:34:12.465Z,436
2016-05-19T04:35:12.654Z,448
2016-05-19T04:36:12.689Z,468
2016-05-19T04:37:12.739Z,484
2016-05-19T04:38:12.631Z,500
2016-05-19T04:39:12.651Z,516
2016-05-19T04:40:12.840Z,524
2016-05-19T04:41:12.889Z,536
2016-05-19T04:42:12.940Z,560
2016-05-19T04:43:12.958Z,572
2016-05-19T04:44:12.836Z,576
2016-05-19T04:45:13.025Z,572
2016-05-19T04:46:13.059Z,576
2016-05-19T04:47:13.093Z,584
2016-05-19T04:48:13.144Z,592
2016-05-19T04:49:13.177Z,580
2016-05-19T04:50:13.211Z,564
2016-05-19T04:51:13.245Z,556
2016-05-19T04:52:13.294Z,556
2016-05-19T04:53:13.344Z,572
2016-05-19T04:54:13.362Z,600
2016-05-19T04:55:13.397Z,640
2016-05-19T04:56:13.430Z,684
2016-05-19T04:57:13.463Z,724
2016-05-19T04:58:13.514Z,760
2016-05-19T04:59:13.548Z,796
2016-05-19T05:00:13.582Z,836
2016-05-19T05:01:13.616Z,872
2016-05-19T05:02:13.665Z,896
2016-05-19T05:03:13.699Z,916
2016-05-19T05:04:13.732Z,928
2016-05-19T05:05:13.626Z,936
2016-05-19T05:06:13.817Z,944
2016-05-19T05:07:13.835Z,956
2016-05-19T05:08:13.978Z,972
2016-05-19T05:09:13.903Z,988
2016-05-19T05:10:13.953Z,1008
2016-05-19T05:11:13.986Z,1020
2016-05-19T05:12:14.036Z,1040
2016-05-19T05:13:14.054Z,1064
2016-05-19T05:14:14.104Z,1096
2016-05-19T05:15:14.137Z,1116
2016-05-19T05:16:14.187Z,1128
2016-05-19T05:17:14.222Z,1124
2016-05-19T05:18:14.255Z,1124
2016-05-19T05:19:14.289Z,1116
2016-05-19T05:20:14.323Z,1112
2016-05-19T05:21:14.372Z,1112
2016-05-19T05:22:14.391Z,1132
2016-05-19T05:23:14.143Z,1136
2016-05-19T05:24:15.302Z,1144
2016-05-19T05:25:14.525Z,1136
2016-05-19T05:26:14.558Z,1128
2016-05-19T05:27:14.591Z,1136
2016-05-19T05:28:14.641Z,1160
2016-05-19T05:29:14.504Z,1188
2016-05-19T05:30:14.710Z,1204
2016-05-19T05:31:14.587Z,1220
2016-05-19T05:32:14.777Z,1220
2016-05-19T05:33:14.827Z,1208
2016-05-19T05:34:14.845Z,1204
2016-05-19T05:35:14.895Z,1212
2016-05-19T05:36:14.960Z,1256
2016-05-19T05:37:14.962Z,1276
2016-05-19T05:38:15.106Z,1296
2016-05-19T05:39:14.890Z,1316
2016-05-19T05:40:15.080Z,1332
2016-05-19T05:41:15.114Z,1336
2016-05-19T05:42:15.148Z,1344
2016-05-19T05:43:15.182Z,1352
2016-05-19T05:44:15.060Z,1356
2016-05-19T05:45:15.265Z,1352
2016-05-19T05:46:15.300Z,1348
2016-05-19T05:47:15.177Z,1300
2016-05-19T05:48:15.367Z,1260
2016-05-19T05:49:15.416Z,1220
2016-05-19T05:50:15.451Z,1200
2016-05-19T05:51:15.328Z,1180
2016-05-19T05:52:15.519Z,1176
2016-05-19T05:53:16.897Z,1176
2016-05-19T05:54:15.446Z,1184
2016-05-19T05:55:15.480Z,1192
2016-05-19T05:56:15.670Z,1192
2016-05-19T05:57:15.563Z,1200
2016-05-19T05:58:15.753Z,1216
2016-05-19T05:59:15.787Z,1248
2016-05-19T06:00:15.837Z,1260
2016-05-19T06:01:15.558Z,1268
2016-05-19T06:02:15.593Z,1276
2016-05-19T06:03:15.924Z,1288
2016-05-19T06:04:15.973Z,1308
2016-05-19T06:05:16.007Z,1292
2016-05-19T06:06:16.057Z,1292
2016-05-19T06:07:16.074Z,1292
2016-05-19T06:08:15.968Z,1268
2016-05-19T06:09:16.157Z,1232
2016-05-19T06:10:16.207Z,1196
2016-05-19T06:11:16.226Z,1184
2016-05-19T06:12:16.119Z,1184
2016-05-19T06:13:16.309Z,1188
2016-05-19T06:14:16.343Z,1192
2016-05-19T06:15:16.409Z,1228
2016-05-19T06:16:16.427Z,1272
2016-05-19T06:17:16.304Z,1308
2016-05-19T06:18:16.511Z,1300
2016-05-19T06:19:16.528Z,1308
2016-05-19T06:20:16.562Z,1320
2016-05-19T06:21:16.627Z,1344
2016-05-19T06:22:16.647Z,1364
2016-05-19T06:23:17.680Z,1364
2016-05-19T06:24:16.714Z,1360
2016-05-19T06:25:16.764Z,1348
2016-05-19T06:26:16.642Z,1336
2016-05-19T06:27:16.847Z,1336
2016-05-19T06:28:16.880Z,1336
2016-05-19T06:29:16.915Z,1344
2016-05-19T06:30:16.949Z,1332
2016-05-19T06:31:16.982Z,1320
2016-05-19T06:32:17.033Z,1324
2016-05-19T06:33:17.066Z,1328
2016-05-19T06:34:17.100Z,1324
2016-05-19T06:35:16.978Z,1308
2016-05-19T06:36:17.012Z,1304
2016-05-19T06:37:17.218Z,1280
2016-05-19T06:38:17.267Z,1248
2016-05-19T06:39:17.285Z,1240
2016-05-19T06:40:17.320Z,1228
2016-05-19T06:41:17.369Z,1220
2016-05-19T06:42:17.403Z,1224
2016-05-19T06:43:17.437Z,1212
2016-05-19T06:44:17.471Z,1208
2016-05-19T06:45:17.505Z,1212
2016-05-19T06:46:17.554Z,1240
2016-05-19T06:47:17.589Z,1268
2016-05-19T06:48:17.623Z,1300
2016-05-19T06:49:17.656Z,1328
2016-05-19T06:50:17.705Z,1364
2016-05-19T06:51:17.724Z,1404
2016-05-19T06:52:17.758Z,1452
2016-05-19T06:53:17.823Z,1512
2016-05-19T06:54:17.858Z,1576
2016-05-19T06:55:17.891Z,1616
2016-05-19T06:56:17.941Z,1652
2016-05-19T06:57:17.959Z,1688
2016-05-19T06:58:17.994Z,1712
2016-05-19T06:59:17.885Z,1732
2016-05-19T07:00:18.077Z,1756
2016-05-19T07:01:18.126Z,1784
2016-05-19T07:02:18.004Z,1812
2016-05-19T07:03:18.177Z,1840
2016-05-19T07:04:18.227Z,1848
2016-05-19T07:05:18.262Z,1852
2016-05-19T07:06:18.296Z,1864
2016-05-19T07:07:18.329Z,1876
2016-05-19T07:08:18.379Z,1864
2016-05-19T07:09:18.413Z,1840
2016-05-19T07:10:18.462Z,1800
2016-05-19T07:11:18.481Z,1756
2016-05-19T07:12:18.531Z,1692
2016-05-19T07:13:18.564Z,1640
2016-05-19T07:14:18.614Z,1600
2016-05-19T07:15:18.632Z,1576
2016-05-19T07:16:18.681Z,1576
2016-05-19T07:17:18.715Z,1572
2016-05-19T07:18:18.765Z,1564
2016-05-19T07:19:18.784Z,1428
2016-05-19T07:20:18.833Z,1380
2016-05-19T07:21:18.711Z,1332
2016-05-19T07:22:18.917Z,1264
2016-05-19T07:23:18.794Z,1212
2016-05-19T07:24:18.984Z,1172
2016-05-19T07:25:19.034Z,1132
2016-05-19T07:26:19.084Z,1096
2016-05-19T07:27:19.102Z,1044
2016-05-19T07:28:19.136Z,992
2016-05-19T07:29:19.170Z,960
2016-05-19T07:30:19.220Z,928
2016-05-19T07:31:19.238Z,916
2016-05-19T07:32:21.053Z,932
2016-05-19T07:33:19.337Z,896
2016-05-19T07:34:19.371Z,956
2016-05-19T07:35:19.389Z,960
2016-05-19T07:36:19.439Z,964
2016-05-19T07:37:19.582Z,940
2016-05-19T07:38:19.522Z,960
2016-05-19T07:39:19.540Z,956
2016-05-19T07:40:19.590Z,960
2016-05-19T07:41:20.218Z,972
2016-05-19T07:42:19.657Z,1004
2016-05-19T07:43:19.707Z,1004
2016-05-19T07:44:19.757Z,1004
2016-05-19T07:45:19.806Z,1020
2016-05-19T07:46:19.810Z,1056
2016-05-19T07:47:19.859Z,1064
2016-05-19T07:48:19.892Z,1116
2016-05-19T07:49:19.927Z,1132
2016-05-19T07:50:19.962Z,1104
2016-05-19T07:51:20.011Z,1100
2016-05-19T07:52:20.045Z,1064
2016-05-19T07:53:19.781Z,1032
2016-05-19T07:54:20.112Z,1060
2016-05-19T07:55:20.161Z,1048
2016-05-19T07:56:20.195Z,1040
2016-05-19T07:57:20.230Z,1064
2016-05-19T07:58:20.108Z,1068
2016-05-19T07:59:20.297Z,1076
2016-05-19T08:00:20.331Z,1084
2016-05-19T08:01:20.381Z,1092
2016-05-19T08:02:20.415Z,1108
2016-05-19T08:03:20.293Z,1120
2016-05-19T08:04:20.498Z,1132
2016-05-19T08:05:20.532Z,1144
2016-05-19T08:06:20.582Z,1160
2016-05-19T08:07:20.600Z,1168
2016-05-19T08:08:20.900Z,1184
2016-05-19T08:09:20.685Z,1200
2016-05-19T08:10:20.718Z,1220
2016-05-19T08:11:20.752Z,1244
2016-05-19T08:12:20.645Z,1280
2016-05-19T08:13:20.835Z,1312
2016-05-19T08:14:20.869Z,1332
2016-05-19T08:15:20.746Z,1340
2016-05-19T08:16:20.953Z,1336
2016-05-19T08:17:20.987Z,1332
2016-05-19T08:18:21.021Z,1324
2016-05-19T08:19:21.070Z,1316
2016-05-19T08:20:21.089Z,1308
2016-05-19T08:21:21.137Z,1308
2016-05-19T08:22:21.344Z,1312
2016-05-19T08:23:21.206Z,1320
2016-05-19T08:24:21.317Z,1328
2016-05-19T08:25:21.430Z,1320
2016-05-19T08:26:21.182Z,1292
2016-05-19T08:27:21.591Z,1260
2016-05-19T08:28:21.391Z,1220
2016-05-19T08:29:21.441Z,1204
2016-05-19T08:30:21.537Z,1192
2016-05-19T08:31:21.633Z,1184
2016-05-19T08:32:21.542Z,1188
2016-05-19T08:33:21.608Z,1192
2016-05-19T08:34:21.641Z,1196
2016-05-19T08:35:21.661Z,1196
2016-05-19T08:36:21.725Z,1204
2016-05-19T08:37:21.588Z,1212
2016-05-19T08:38:21.965Z,1212
2016-05-19T08:39:21.827Z,1208
2016-05-19T08:40:22.032Z,1212
2016-05-19T08:41:21.941Z,1208
2016-05-19T08:42:21.944Z,1216
2016-05-19T08:43:22.119Z,1248
2016-05-19T08:44:21.997Z,1252
2016-05-19T08:45:21.906Z,1252
2016-05-19T08:46:21.924Z,1256
2016-05-19T08:47:21.817Z,1260
2016-05-19T08:48:22.164Z,1252
2016-05-19T08:49:22.119Z,1264
2016-05-19T08:50:22.278Z,1276
2016-05-19T08:51:22.281Z,1288
2016-05-19T08:52:22.315Z,1288
2016-05-19T08:53:22.692Z,1300
2016-05-19T08:54:22.258Z,1304
2016-05-19T08:55:22.401Z,1308
2016-05-19T08:56:22.467Z,1324
2016-05-19T08:57:22.500Z,1332
2016-05-19T08:58:22.534Z,1328
2016-05-19T08:59:22.583Z,1324
2016-05-19T09:00:22.617Z,1336
2016-05-19T09:01:22.652Z,1336
2016-05-19T09:02:22.702Z,1340
2016-05-19T09:03:22.736Z,1360
2016-05-19T09:04:22.769Z,1348
2016-05-19T09:05:22.803Z,1344
2016-05-19T09:06:22.916Z,1360
2016-05-19T09:07:22.886Z,1356
2016-05-19T09:08:23.467Z,1356
2016-05-19T09:09:22.970Z,1356
2016-05-19T09:10:23.301Z,1356
2016-05-19T09:11:23.038Z,1356
2016-05-19T09:12:23.071Z,1348
2016-05-19T09:13:23.247Z,1352
2016-05-19T09:14:23.218Z,1352
2016-05-19T09:15:23.189Z,1352
2016-05-19T09:16:23.240Z,1364
2016-05-19T09:17:23.273Z,1372
2016-05-19T09:18:23.307Z,1376
2016-05-19T09:19:23.340Z,1372
2016-05-19T09:20:23.376Z,1380
2016-05-19T09:21:23.424Z,1392
2016-05-19T09:23:23.508Z,1416
2016-05-19T09:24:23.542Z,1432
2016-05-19T09:25:23.420Z,1452
2016-05-19T09:26:23.609Z,1468
2016-05-19T09:27:23.690Z,1492
2016-05-19T09:28:23.692Z,1512
2016-05-19T09:29:23.570Z,1528
2016-05-19T09:30:23.777Z,1552
2016-05-19T09:31:23.811Z,1576
2016-05-19T09:32:23.845Z,1568
2016-05-19T09:33:23.878Z,1460
2016-05-19T09:34:23.913Z,1476
2016-05-19T09:35:23.946Z,1508
2016-05-19T09:36:23.996Z,1680
2016-05-19T09:37:24.029Z,1784
2016-05-19T09:38:23.924Z,1856
2016-05-19T09:39:23.958Z,1932
2016-05-19T09:40:23.991Z,1968
2016-05-19T09:41:24.182Z,1972
2016-05-19T09:42:24.215Z,1948
2016-05-19T09:43:24.249Z,1948
2016-05-19T09:44:24.299Z,1912
2016-05-19T09:45:24.332Z,1924
2016-05-19T09:46:24.366Z,1936
2016-05-19T09:47:24.416Z,1952
2016-05-19T09:48:24.451Z,1972
2016-05-19T09:49:24.499Z,2012
2016-05-19T09:50:24.534Z,2048
2016-05-19T09:51:24.584Z,2092
2016-05-19T09:52:24.601Z,2120
2016-05-19T09:53:25.323Z,2164
2016-05-19T09:54:24.685Z,2180
2016-05-19T09:55:24.719Z,2160
2016-05-19T09:56:24.753Z,2124
2016-05-19T09:57:24.787Z,2088
2016-05-19T09:58:24.820Z,2076
2016-05-19T09:59:24.870Z,2056
2016-05-19T10:00:24.904Z,2120
2016-05-19T10:01:24.953Z,2196
2016-05-19T10:02:24.831Z,2240
2016-05-19T10:03:25.037Z,2204
2016-05-19T10:04:25.056Z,2220
2016-05-19T10:05:25.089Z,2200
2016-05-19T10:06:25.139Z,2216
2016-05-19T10:07:25.173Z,2232
2016-05-19T10:08:25.098Z,2280
2016-05-19T10:09:25.272Z,2308
2016-05-19T10:10:25.510Z,2288
2016-05-19T10:11:25.293Z,2168
2016-05-19T10:12:25.233Z,2200
2016-05-19T10:13:25.408Z,2236
2016-05-19T10:14:25.442Z,2232
2016-05-19T10:15:25.491Z,2184
2016-05-19T10:16:25.526Z,2148
2016-05-19T10:17:25.575Z,2148
2016-05-19T10:18:25.609Z,2188
2016-05-19T10:19:25.643Z,2248
2016-05-19T10:20:25.677Z,2296
2016-05-19T10:21:25.555Z,2248
2016-05-19T10:22:25.760Z,2188
2016-05-19T10:23:26.029Z,2088
2016-05-19T10:24:25.906Z,2056
2016-05-19T10:25:25.909Z,2056
2016-05-19T10:26:25.912Z,2064
2016-05-19T10:27:25.962Z,2072
2016-05-19T10:28:25.979Z,2116
2016-05-19T10:29:26.029Z,2172
2016-05-19T10:30:26.064Z,2240
2016-05-19T10:31:26.097Z,2500
2016-05-19T10:32:26.131Z,2496
2016-05-19T10:33:26.181Z,2476
2016-05-19T10:34:26.215Z,2440
2016-05-19T10:35:26.264Z,2388
2016-05-19T10:36:26.298Z,2348
2016-05-19T10:37:26.175Z,2288
2016-05-19T10:38:26.319Z,2212
2016-05-19T10:39:26.244Z,2160
2016-05-19T10:40:26.450Z,2144
2016-05-19T10:41:26.468Z,2144
2016-05-19T10:42:26.517Z,2172
2016-05-19T10:43:26.567Z,2204
2016-05-19T10:44:26.601Z,2296
2016-05-19T10:45:26.479Z,2240
2016-05-19T10:46:26.669Z,2248
2016-05-19T10:47:26.719Z,2296
2016-05-19T10:48:26.752Z,2368
2016-05-19T10:49:26.786Z,2404
2016-05-19T10:50:26.695Z,2412
2016-05-19T10:51:26.870Z,2456
2016-05-19T10:52:26.904Z,2568
2016-05-19T10:53:26.969Z,2492
2016-05-19T10:54:26.987Z,2516
2016-05-19T10:55:26.896Z,2656
2016-05-19T10:56:26.899Z,2764
2016-05-19T10:57:27.104Z,2860
2016-05-19T10:58:26.981Z,2904
2016-05-19T10:59:27.188Z,2944
2016-05-19T11:00:27.223Z,2980
2016-05-19T11:01:27.256Z,2820
2016-05-19T11:02:27.290Z,2824
2016-05-19T11:03:27.323Z,2768
2016-05-19T11:04:27.373Z,2756
2016-05-19T11:05:27.422Z,2748
2016-05-19T11:06:27.456Z,2748
2016-05-19T11:07:27.491Z,2784
2016-05-19T11:08:27.244Z,2844
2016-05-19T11:09:27.575Z,2968
2016-05-19T11:10:27.608Z,2984
2016-05-19T11:11:27.641Z,3096
2016-05-19T11:12:27.691Z,3204
2016-05-19T11:13:28.414Z,3292
2016-05-19T11:14:27.760Z,3272
2016-05-19T11:15:27.794Z,3464
2016-05-19T11:16:27.843Z,3412
2016-05-19T11:17:27.721Z,3344
2016-05-19T11:18:28.285Z,3256
2016-05-19T11:19:27.945Z,3200
2016-05-19T11:20:27.994Z,3184
2016-05-19T11:21:28.029Z,3176
2016-05-19T11:22:28.078Z,3204
2016-05-19T11:23:28.112Z,3228
2016-05-19T11:24:28.005Z,3272
2016-05-19T11:25:27.899Z,3304
2016-05-19T11:26:28.073Z,3304
2016-05-19T11:27:28.263Z,3336
2016-05-19T11:28:29.641Z,3396
2016-05-19T11:29:28.348Z,3412
2016-05-19T11:30:28.381Z,3444
2016-05-19T11:31:28.415Z,3440
2016-05-19T11:32:28.308Z,3452
2016-05-19T11:33:28.498Z,3464
2016-05-19T11:34:28.547Z,3488
2016-05-19T11:35:28.581Z,3516
2016-05-19T11:36:28.616Z,3540
2016-05-19T11:37:28.650Z,3580
2016-05-19T11:38:31.980Z,3624
2016-05-19T11:39:28.749Z,3656
2016-05-19T11:40:28.766Z,3688
2016-05-19T11:41:28.816Z,3720
2016-05-19T11:42:28.851Z,3796
2016-05-19T11:43:30.463Z,3852
2016-05-19T11:44:28.933Z,3884
2016-05-19T11:45:28.827Z,3872
2016-05-19T11:46:29.002Z,3824
2016-05-19T11:47:29.074Z,3780
2016-05-19T11:48:31.210Z,3776
2016-05-19T11:49:29.269Z,3784
2016-05-19T11:50:29.328Z,3832
2016-05-19T11:51:29.417Z,3916
2016-05-19T11:52:29.296Z,4032
2016-05-19T11:53:30.767Z,3872
2016-05-19T11:54:29.580Z,4192
2016-05-19T11:55:29.629Z,4040
2016-05-19T11:56:29.693Z,4328
2016-05-19T11:57:29.717Z,4272
2016-05-19T11:58:29.772Z,4272
2016-05-19T11:59:29.811Z,3964
2016-05-19T12:00:29.852Z,3656
2016-05-19T12:01:29.891Z,3512
2016-05-19T12:02:29.771Z,3476
2016-05-19T12:03:30.665Z,3316
2016-05-19T12:04:29.873Z,3284
2016-05-19T12:05:30.065Z,3320
2016-05-19T12:06:30.101Z,3836
2016-05-19T12:07:33.151Z,3856
2016-05-19T12:08:32.390Z,3920
2016-05-19T12:09:30.439Z,4180
2016-05-19T12:10:30.255Z,4440
2016-05-19T12:11:30.337Z,4064
2016-05-19T12:12:30.356Z,4188
2016-05-19T12:13:30.968Z,4776
2016-05-19T12:14:30.643Z,4684
2016-05-19T12:15:32.755Z,4576
2016-05-19T12:16:30.494Z,4384
2016-05-19T12:17:30.371Z,4280
2016-05-19T12:18:32.827Z,4172
2016-05-19T12:19:30.611Z,4040
2016-05-19T12:20:30.660Z,3480
2016-05-19T12:21:30.693Z,3632
2016-05-19T12:22:30.727Z,4392
2016-05-19T12:23:31.637Z,3652
2016-05-19T12:24:30.515Z,3408
2016-05-19T12:25:30.845Z,3328
2016-05-19T12:26:30.895Z,3304
2016-05-19T12:27:30.945Z,3268
2016-05-19T12:28:33.198Z,3248
2016-05-19T12:29:31.043Z,3324
2016-05-19T12:30:30.890Z,3452
2016-05-19T12:31:30.940Z,4116
2016-05-19T12:32:31.130Z,4464
2016-05-19T12:33:31.304Z,4460
2016-05-19T12:34:31.198Z,4484
2016-05-19T12:35:31.247Z,4436
2016-05-19T12:36:31.281Z,4272
2016-05-19T12:37:31.315Z,4272
2016-05-19T12:38:31.740Z,4228
2016-05-19T12:39:32.367Z,4000
2016-05-19T12:40:31.448Z,3204
2016-05-19T12:41:31.483Z,2980
2016-05-19T12:42:31.517Z,2308
2016-05-19T12:43:33.175Z,2424
2016-05-19T12:44:31.600Z,2464
2016-05-19T12:45:31.633Z,2520
2016-05-19T12:46:31.667Z,2616
2016-05-19T12:47:31.717Z,2752
2016-05-19T12:48:31.751Z,2808
2016-05-19T12:49:31.644Z,2704
2016-05-19T12:50:31.835Z,2572
2016-05-19T12:51:31.885Z,2444
2016-05-19T12:52:31.902Z,2356
2016-05-19T12:53:31.952Z,2368
2016-05-19T12:54:32.486Z,2292
2016-05-19T12:55:32.051Z,2228
2016-05-19T12:56:32.054Z,2340
2016-05-19T12:57:32.104Z,2468
2016-05-19T12:58:33.496Z,2280
2016-05-19T12:59:32.172Z,2268
2016-05-19T13:00:32.221Z,2452
2016-05-19T13:01:32.099Z,2424
2016-05-19T13:02:32.289Z,2372
2016-05-19T13:03:33.542Z,2624
2016-05-19T13:04:32.372Z,2756
2016-05-19T13:05:32.406Z,3028
2016-05-19T13:06:32.456Z,3108
2016-05-19T13:07:32.490Z,3104
2016-05-19T13:08:34.134Z,3116
2016-05-19T13:09:32.683Z,3120
2016-05-19T13:10:32.451Z,2844
2016-05-19T13:11:32.656Z,3060
2016-05-19T13:12:32.691Z,3028
2016-05-19T13:13:34.194Z,3020
2016-05-19T13:14:32.634Z,3012
2016-05-19T13:15:32.792Z,2996
2016-05-19T13:16:32.841Z,2988
2016-05-19T13:17:32.875Z,2976
2016-05-19T13:18:33.942Z,2952
2016-05-19T13:19:32.960Z,2968
2016-05-19T13:20:32.838Z,2944
2016-05-19T13:21:33.043Z,2928
2016-05-19T13:22:33.077Z,2920
2016-05-19T13:23:33.017Z,2880
2016-05-19T13:24:33.316Z,2868
2016-05-19T13:25:33.038Z,2512
2016-05-19T13:26:33.229Z,2916
2016-05-19T13:27:33.263Z,2896
2016-05-19T13:28:33.328Z,2652
2016-05-19T13:29:33.329Z,2888
2016-05-19T13:30:33.379Z,2876
2016-05-19T13:31:33.257Z,2924
2016-05-19T13:32:33.463Z,2984
2016-05-19T13:33:36.372Z,3028
2016-05-19T13:34:33.531Z,3068
2016-05-19T13:35:33.424Z,3164
2016-05-19T13:36:33.615Z,3144
2016-05-19T13:37:33.648Z,3236
2016-05-19T13:38:37.136Z,3372
2016-05-19T13:39:33.420Z,3520
2016-05-19T13:40:33.641Z,3492
2016-05-19T13:41:33.815Z,3448
2016-05-19T13:42:33.850Z,3528
2016-05-19T13:43:33.915Z,3488
2016-05-19T13:44:33.933Z,3568